createdAt,value
2023-04-22T00:02:14.669Z,17.09
2023-04-22T00:05:20.429Z,17.13
2023-04-22T00:08:23.170Z,17.09
2023-04-22T00:11:26.351Z,17.10
2023-04-22T00:14:28.665Z,17.04
2023-04-22T00:17:31.028Z,17.09
2023-04-22T00:20:33.356Z,17.02
2023-04-22T00:23:35.769Z,17.08
2023-04-22T00:26:38.161Z,17.06
2023-04-22T00:29:40.955Z,17.01
2023-04-22T00:32:43.858Z,17.00
2023-04-22T00:35:49.034Z,16.92
2023-04-22T00:38:51.834Z,17.00
2023-04-22T00:41:54.305Z,16.94
2023-04-22T00:44:57.155Z,16.94
2023-04-22T00:48:00.169Z,16.91
2023-04-22T00:51:02.774Z,16.91
2023-04-22T00:54:06.492Z,16.94
2023-04-22T00:57:08.807Z,16.88
2023-04-22T01:00:11.732Z,16.92
2023-04-22T01:03:14.740Z,16.85
2023-04-22T01:06:19.685Z,16.83
2023-04-22T01:09:22.000Z,16.89
2023-04-22T01:12:24.378Z,16.89
2023-04-22T01:15:28.722Z,16.86
2023-04-22T01:18:31.241Z,16.85
2023-04-22T01:21:35.178Z,16.76
2023-04-22T01:24:37.684Z,16.77
2023-04-22T01:27:41.054Z,16.81
2023-04-22T01:30:44.185Z,16.79
2023-04-22T01:33:48.325Z,16.75
2023-04-22T01:36:51.435Z,16.79
2023-04-22T01:39:54.252Z,16.78
2023-04-22T01:42:56.953Z,16.76
2023-04-22T01:46:01.420Z,16.73
2023-04-22T01:49:03.768Z,16.62
2023-04-22T01:52:06.198Z,16.69
2023-04-22T01:55:09.444Z,16.72
2023-04-22T01:58:11.856Z,16.72
2023-04-22T02:01:14.790Z,16.70
2023-04-22T02:04:17.233Z,16.69
2023-04-22T02:07:19.598Z,16.69
2023-04-22T02:10:22.000Z,16.67
2023-04-22T02:13:24.346Z,16.60
2023-04-22T02:16:26.829Z,16.64
2023-04-22T02:19:29.520Z,16.66
2023-04-22T02:22:32.781Z,16.57
2023-04-22T02:25:35.114Z,16.65
2023-04-22T02:28:37.514Z,16.57
2023-04-22T02:31:39.908Z,16.59
2023-04-22T02:34:42.326Z,16.55
2023-04-22T02:37:44.644Z,16.61
2023-04-22T02:40:47.117Z,16.57
2023-04-22T02:43:49.926Z,16.54
2023-04-22T02:46:52.891Z,16.58
2023-04-22T02:49:55.352Z,16.48
2023-04-22T02:52:57.729Z,16.58
2023-04-22T02:56:00.183Z,16.56
2023-04-22T02:59:02.548Z,16.56
2023-04-22T03:02:06.861Z,16.55
2023-04-22T03:05:24.018Z,16.56
2023-04-22T03:08:26.631Z,16.53
2023-04-22T03:11:28.959Z,16.53
2023-04-22T03:14:31.323Z,16.51
2023-04-22T03:17:34.829Z,16.47
2023-04-22T03:20:40.649Z,16.51
2023-04-22T03:23:43.818Z,16.43
2023-04-22T03:26:47.920Z,16.48
2023-04-22T03:29:50.352Z,16.41
2023-04-22T03:32:53.727Z,16.46
2023-04-22T03:36:10.534Z,16.45
2023-04-22T03:39:12.909Z,16.41
2023-04-22T03:42:16.986Z,16.42
2023-04-22T03:45:20.072Z,16.36
2023-04-22T03:48:34.921Z,16.34
2023-04-22T03:51:39.924Z,16.41
2023-04-22T03:54:47.436Z,16.42
2023-04-22T03:57:49.886Z,16.40
2023-04-22T04:00:52.393Z,16.41
2023-04-22T04:03:55.189Z,16.42
2023-04-22T04:06:59.383Z,16.36
2023-04-22T04:10:02.896Z,16.37
2023-04-22T04:13:05.398Z,16.39
2023-04-22T04:16:18.881Z,16.44
2023-04-22T04:19:26.435Z,16.44
2023-04-22T04:22:29.326Z,16.48
2023-04-22T04:25:38.937Z,16.46
2023-04-22T04:28:45.606Z,16.48
2023-04-22T04:31:48.646Z,16.50
2023-04-22T04:34:52.749Z,16.42
2023-04-22T04:37:56.614Z,16.51
2023-04-22T04:40:59.389Z,16.56
2023-04-22T04:44:03.306Z,16.58
2023-04-22T04:47:09.635Z,16.55
2023-04-22T04:50:13.073Z,16.64
2023-04-22T04:53:16.285Z,16.68
2023-04-22T04:56:20.803Z,16.72
2023-04-22T04:59:23.824Z,16.76
2023-04-22T05:02:26.479Z,16.77
2023-04-22T05:05:29.458Z,16.90
2023-04-22T05:08:32.305Z,16.86
2023-04-22T05:11:40.568Z,17.00
2023-04-22T05:14:51.289Z,17.03
2023-04-22T05:17:54.297Z,17.06
2023-04-22T05:20:59.352Z,17.06
2023-04-22T05:24:02.042Z,17.09
2023-04-22T05:27:05.173Z,17.04
2023-04-22T05:30:09.258Z,17.13
2023-04-22T05:33:11.790Z,17.16
2023-04-22T05:36:14.608Z,17.20
2023-04-22T05:39:18.516Z,17.15
2023-04-22T05:42:21.600Z,17.21
2023-04-22T05:45:24.913Z,17.23
2023-04-22T05:48:27.439Z,17.31
2023-04-22T05:51:34.318Z,17.36
2023-04-22T05:54:37.395Z,17.41
2023-04-22T05:57:40.189Z,17.38
2023-04-22T06:00:52.260Z,17.47
2023-04-22T06:04:13.671Z,17.46
2023-04-22T06:07:16.434Z,17.58
2023-04-22T06:10:18.800Z,17.60
2023-04-22T06:13:21.173Z,17.78
2023-04-22T06:16:23.773Z,17.93
2023-04-22T06:19:26.954Z,18.20
2023-04-22T06:22:29.408Z,18.38
2023-04-22T06:25:32.666Z,18.47
2023-04-22T06:28:35.385Z,18.76
2023-04-22T06:31:45.066Z,18.95
2023-04-22T06:34:47.526Z,19.03
2023-04-22T06:37:50.452Z,19.25
2023-04-22T06:40:52.907Z,19.35
2023-04-22T06:44:01.139Z,19.46
2023-04-22T06:47:22.147Z,19.59
2023-04-22T06:50:30.670Z,19.72
2023-04-22T06:53:34.092Z,19.95
2023-04-22T06:56:36.590Z,20.04
2023-04-22T06:59:39.415Z,20.15
2023-04-22T07:02:42.378Z,20.31
2023-04-22T07:05:45.017Z,20.49
2023-04-22T07:08:47.477Z,20.52
2023-04-22T07:11:50.951Z,20.66
2023-04-22T07:14:55.304Z,20.84
2023-04-22T07:17:57.734Z,20.90
2023-04-22T07:21:00.165Z,21.04
2023-04-22T07:24:02.636Z,21.07
2023-04-22T07:27:05.008Z,21.26
2023-04-22T07:30:08.372Z,21.28
2023-04-22T15:07:04.464Z,19.11
2023-04-22T15:10:08.236Z,18.99
2023-04-22T15:13:10.567Z,19.04
2023-04-22T15:16:13.578Z,19.06
2023-04-22T15:19:15.969Z,19.06
2023-04-22T15:22:18.303Z,19.07
2023-04-22T15:25:20.852Z,19.05
2023-04-22T15:28:24.516Z,19.04
2023-04-22T15:31:27.112Z,19.02
2023-04-22T15:34:29.467Z,19.03
2023-04-22T15:37:32.212Z,19.00
2023-04-22T15:40:34.536Z,18.97
2023-04-22T15:43:36.830Z,18.99
2023-04-22T15:46:39.360Z,19.00
2023-04-22T15:49:42.079Z,18.92
2023-04-22T15:52:44.706Z,18.97
2023-04-22T15:55:48.560Z,18.97
2023-04-22T15:58:51.918Z,18.94
2023-04-22T16:01:54.543Z,18.89
2023-04-22T16:04:57.031Z,18.96
2023-04-22T16:07:59.391Z,18.92
2023-04-22T16:11:01.716Z,18.93
2023-04-22T16:14:04.164Z,18.92
2023-04-22T16:17:08.511Z,18.89
2023-04-22T16:20:11.057Z,18.80
2023-04-22T16:23:13.426Z,18.89
2023-04-22T16:26:15.993Z,18.88
2023-04-22T16:29:19.501Z,18.85
2023-04-22T16:32:21.888Z,18.90
2023-04-22T16:35:24.327Z,18.87
2023-04-22T16:38:26.704Z,18.80
2023-04-22T16:41:29.015Z,18.81
2023-04-22T16:44:31.397Z,18.84
2023-04-22T16:47:33.718Z,18.83
2023-04-22T16:50:36.072Z,18.84
2023-04-22T16:53:38.499Z,18.82
2023-04-22T16:56:40.820Z,18.80
2023-04-22T16:59:43.221Z,18.71
2023-04-22T17:02:46.021Z,18.74
2023-04-22T17:05:48.529Z,18.76
2023-04-22T17:08:52.691Z,18.74
2023-04-22T17:11:56.151Z,18.67
2023-04-22T17:14:58.509Z,18.72
2023-04-22T17:18:01.974Z,18.65
2023-04-22T17:21:04.381Z,18.65
2023-04-22T17:24:07.424Z,18.69
2023-04-22T17:27:09.831Z,18.67
2023-04-22T17:30:12.597Z,18.61
2023-04-22T17:33:14.994Z,18.62
2023-04-22T17:36:19.896Z,18.60
2023-04-22T17:39:22.511Z,18.53
2023-04-22T17:42:32.193Z,18.53
2023-04-22T17:45:41.647Z,18.51
2023-04-22T17:48:46.689Z,18.45
2023-04-22T17:51:49.345Z,18.42
2023-04-22T17:54:52.261Z,18.40
2023-04-22T17:57:54.599Z,18.34
2023-04-22T18:00:58.655Z,18.24
2023-04-22T18:04:01.517Z,18.30
2023-04-22T18:07:03.932Z,18.29
2023-04-22T18:10:07.161Z,18.26
2023-04-22T18:13:09.538Z,18.19
2023-04-22T18:16:11.998Z,18.15
2023-04-22T18:19:14.412Z,18.18
2023-04-22T18:22:18.448Z,18.14
2023-04-22T18:25:21.061Z,18.04
2023-04-22T18:28:23.592Z,18.00
2023-04-22T18:31:26.190Z,18.04
2023-04-22T18:34:29.396Z,17.97
2023-04-22T18:37:34.704Z,17.97
2023-04-22T18:40:37.329Z,17.91
2023-04-22T18:43:39.808Z,17.85
2023-04-22T18:46:42.225Z,17.90
2023-04-22T18:49:45.455Z,17.88
2023-04-22T18:52:48.414Z,17.85
2023-04-22T18:55:50.971Z,17.72
2023-04-22T18:58:53.327Z,17.72
2023-04-22T19:01:55.869Z,17.69
2023-04-22T19:04:59.254Z,17.72
2023-04-22T19:08:01.746Z,17.70
2023-04-22T19:11:04.273Z,17.68
2023-04-22T19:14:06.646Z,17.64
2023-04-22T19:17:09.003Z,17.63
2023-04-22T19:20:11.587Z,17.52
2023-04-22T19:23:14.201Z,17.59
2023-04-22T19:26:16.679Z,17.50
2023-04-22T19:29:19.179Z,17.53
2023-04-22T19:32:21.723Z,17.52
2023-04-22T19:35:24.943Z,17.49
2023-04-22T19:38:27.419Z,17.48
2023-04-22T19:41:31.074Z,17.46
2023-04-22T19:44:33.639Z,17.41
2023-04-22T19:47:37.457Z,17.40
2023-04-22T19:50:42.966Z,17.38
2023-04-22T19:53:46.385Z,17.35
2023-04-22T19:56:49.226Z,17.26
2023-04-22T19:59:54.072Z,17.22
2023-04-22T20:02:56.969Z,17.28
2023-04-22T20:06:00.410Z,17.25
2023-04-22T20:09:05.472Z,17.27
2023-04-22T20:12:08.305Z,17.20
2023-04-22T20:15:11.311Z,17.22
2023-04-22T20:18:13.925Z,17.15
2023-04-22T20:21:16.541Z,17.17
2023-04-22T20:24:19.942Z,17.16
2023-04-22T20:27:24.451Z,17.14
2023-04-22T20:30:28.163Z,17.12
2023-04-22T20:33:30.783Z,17.12
2023-04-22T20:36:33.153Z,17.10
2023-04-22T20:39:35.819Z,17.06
2023-04-22T20:42:38.310Z,17.06
2023-04-22T20:45:40.646Z,17.05
2023-04-22T20:48:43.016Z,17.06
2023-04-22T20:51:45.396Z,17.03
2023-04-22T20:54:54.859Z,17.02
2023-04-22T20:57:57.241Z,16.93
2023-04-22T21:00:59.702Z,17.00
2023-04-22T21:04:02.863Z,16.97
2023-04-22T21:07:07.235Z,16.91
2023-04-22T21:10:10.308Z,16.96
2023-04-22T21:13:13.689Z,16.94
2023-04-22T21:16:18.682Z,16.82
2023-04-22T21:19:21.310Z,16.88
2023-04-22T21:22:23.877Z,16.80
2023-04-22T21:25:26.465Z,16.84
2023-04-22T21:28:29.384Z,16.88
2023-04-22T21:31:31.759Z,16.82
2023-04-22T21:34:34.178Z,16.77
2023-04-22T21:37:37.438Z,16.86
2023-04-22T21:40:39.801Z,16.80
2023-04-22T21:43:42.151Z,16.77
2023-04-22T21:46:45.419Z,16.84
2023-04-22T21:49:47.793Z,16.78
2023-04-22T21:52:50.160Z,16.80
2023-04-22T21:55:52.558Z,16.78
2023-04-22T21:58:55.706Z,16.79
2023-04-22T22:01:58.274Z,16.79
2023-04-22T22:05:01.002Z,16.72
2023-04-22T22:08:04.091Z,16.75
2023-04-22T22:11:09.189Z,16.69
2023-04-22T22:14:14.937Z,16.68
2023-04-22T22:17:17.541Z,16.73
2023-04-22T22:20:20.576Z,16.67
2023-04-22T22:23:23.253Z,16.72
2023-04-22T22:26:26.250Z,16.71
2023-04-22T22:29:28.613Z,16.69
2023-04-22T22:32:31.308Z,16.69
2023-04-22T22:35:33.777Z,16.62
2023-04-22T22:38:36.261Z,16.66
2023-04-22T22:41:38.618Z,16.65
2023-04-22T22:44:41.292Z,16.64
2023-04-22T22:47:43.993Z,16.62
2023-04-22T22:50:46.575Z,16.60
2023-04-22T22:53:48.981Z,16.61
2023-04-22T22:56:51.346Z,16.55
2023-04-22T22:59:53.655Z,16.59
2023-04-22T23:02:56.246Z,16.53
2023-04-22T23:05:58.679Z,16.57
2023-04-22T23:09:01.036Z,16.51
2023-04-22T23:12:03.505Z,16.56
2023-04-22T23:15:07.719Z,16.53
2023-04-22T23:18:10.617Z,16.51
2023-04-22T23:21:13.153Z,16.43
2023-04-22T23:24:16.069Z,16.45
2023-04-22T23:27:19.132Z,16.48
2023-04-22T23:30:22.333Z,16.48
2023-04-22T23:33:25.890Z,16.41
2023-04-22T23:36:31.531Z,16.40
2023-04-22T23:39:34.063Z,16.36
2023-04-22T23:42:36.526Z,16.39
2023-04-22T23:45:38.847Z,16.43
2023-04-22T23:48:41.527Z,16.42
2023-04-22T23:51:43.943Z,16.40
2023-04-22T23:54:46.524Z,16.27
2023-04-22T23:57:49.431Z,16.36
